Terminal Aerodrome Forecast
Issued by NWS Twin Cities, MN

Home | Current Version | Previous Version | Text Only | Print | Product List | Glossary Off
Versions: 1 2 3 4 5 6 7 8 9 10 11 12 13 14 15 16 17 18 19 20 21 22 23 24 25

100
FTUS43 KMPX 202100 AAA
TAFMSP
TAF AMD
KMSP 202100Z 2021/2124 21008KT P6SM BKN150
     FM210100 22010KT P6SM BKN200
     FM210400 27011KT P6SM SCT250
     FM210800 29015G22KT P6SM BKN050
     FM211200 30019G28KT P6SM OVC050
     FM211700 31021G30KT P6SM SCT150=

USA.gov is the U.S. government's official web portal to all federal, state and local government web resources and services.